PDT,Max TemperatureF,Mean TemperatureF,Min TemperatureF,Max Dew PointF,MeanDew PointF,Min DewpointF,Max Humidity, Mean Humidity, Min Humidity, Max Sea Level PressureIn, Mean Sea Level PressureIn, Min Sea Level PressureIn, Max VisibilityMiles, Mean VisibilityMiles, Min VisibilityMiles, Max Wind SpeedMPH, Mean Wind SpeedMPH, Max Gust SpeedMPH,PrecipitationIn, CloudCover, Events, WindDirDegrees
2014-4-1,59,54,48,47,45,43,93,78,62,29.95,29.89,29.84,10,9,6,24,9,36,0.62,7,Rain,163
2014-4-2,61,54,47,47,45,42,86,71,55,30.11,30.03,29.88,10,10,10,22,9,25,0.36,4,Rain,66
2014-4-3,64,57,49,51,46,42,86,67,48,30.13,30.09,30.05,10,10,10,16,6,24,0.00,6,,189
2014-4-4,60,56,51,50,48,44,89,73,57,30.06,30.03,29.99,10,10,7,22,11,28,0.22,6,Rain,271
2014-4-5,63,57,50,50,48,46,89,75,60,30.20,30.14,30.06,10,10,9,28,13,33,0.00,1,,276
2014-4-6,74,62,50,55,51,47,89,67,44,30.24,30.18,30.11,10,10,9,23,7,26,0.00,2,,285
2014-4-7,82,69,55,57,52,49,86,63,39,30.16,30.11,30.06,10,10,10,22,6,24,0.00,0,,310
2014-4-8,78,67,55,60,54,50,86,68,49,30.11,30.07,30.03,10,10,10,22,9,25,0.00,4,,303
2014-4-9,64,58,51,53,51,49,96,82,67,30.10,30.05,29.99,10,10,10,25,14,29,0.00,4,,299
2014-4-10,72,60,48,54,50,46,93,71,49,30.04,29.98,29.90,10,9,2,25,8,29,0.00,5,,305
2014-4-11,64,59,53,53,51,48,93,80,67,29.95,29.91,29.86,10,10,10,20,10,23,0.00,6,,290
2014-4-12,67,59,51,52,49,45,83,68,52,29.96,29.91,29.88,10,10,10,22,8,28,0.00,2,,254
2014-4-13,71,63,54,53,50,47,93,75,57,30.06,30.01,29.97,10,10,9,25,10,30,0.00,4,,270
2014-4-14,68,60,52,54,51,50,96,80,63,30.13,30.08,30.03,10,10,8,28,12,31,0.00,4,,295
2014-4-15,65,59,52,51,49,46,89,75,60,30.08,30.00,29.92,10,10,9,24,10,29,0.00,3,,273
2014-4-16,73,63,52,52,49,47,83,65,47,29.93,29.89,29.84,10,10,8,28,12,32,0.00,2,,292
2014-4-17,64,59,53,51,49,46,89,73,56,29.89,29.86,29.81,10,10,8,29,17,36,0.00,3,,277
2014-4-18,63,58,52,50,48,45,83,72,60,29.96,29.92,29.88,10,10,9,25,14,30,0.00,3,,276
2014-4-19,63,57,51,54,49,45,89,73,56,30.13,30.08,29.96,10,10,8,24,13,29,T,4,,267
2014-4-20,79,65,51,60,48,43,89,60,30,30.14,30.11,30.07,10,10,10,28,10,31,0.00,1,,304
2014-4-21,69,61,52,50,48,44,77,63,48,30.09,30.04,29.98,10,10,9,25,13,29,0.00,5,,283
2014-4-22,63,58,52,51,44,38,89,64,39,30.14,30.09,29.98,10,10,3,36,23,41,0.04,4,Rain,276
2014-4-23,66,59,52,51,45,41,86,66,46,30.16,30.13,30.10,10,10,10,32,15,38,0.00,3,,282
2014-4-24,67,61,55,55,53,50,93,76,58,30.13,30.06,29.99,10,10,10,24,11,29,T,6,Rain,265
2014-4-25,73,63,52,55,50,46,100,89,77,29.98,29.88,29.82,10,9,3,29,13,36,0.37,7,Rain,252
2014-4-26,62,55,48,47,43,40,83,62,39,30.10,29.99,29.87,10,10,10,26,15,33,0.00,4,,267
2014-4-27,64,59,53,51,49,46,86,73,60,30.14,30.09,30.04,10,10,10,22,11,26,0.00,6,,229
2014-4-28,69,61,52,51,47,39,89,63,37,30.23,30.19,30.15,10,10,9,26,12,33,0.00,1,,285
2014-4-29,86,70,54,53,46,41,72,47,21,30.21,30.14,30.05,10,10,10,18,6,21,0.00,2,,276
2014-4-30,90,75,60,58,49,33,72,46,19,30.08,30.05,29.99,10,10,10,13,4,15,0.00,2,,297